sensor_id;sensor_type;location;lat;lon;timestamp;P1;durP1;ratioP1;P2;durP2;ratioP2
45296;SDS011;31040;51.622;10.420;2023-05-10T00:01:45;4.80;;;3.58;;
45296;SDS011;31040;51.622;10.420;2023-05-10T00:04:12;4.20;;;3.60;;
45296;SDS011;31040;51.622;10.420;2023-05-10T00:06:40;3.22;;;3.03;;
45296;SDS011;31040;51.622;10.420;2023-05-10T00:09:07;4.05;;;3.60;;
45296;SDS011;31040;51.622;10.420;2023-05-10T00:11:34;4.10;;;3.80;;
45296;SDS011;31040;51.622;10.420;2023-05-10T00:14:02;6.85;;;4.20;;
45296;SDS011;31040;51.622;10.420;2023-05-10T00:16:29;3.97;;;2.80;;
45296;SDS011;31040;51.622;10.420;2023-05-10T00:18:57;4.55;;;3.60;;
45296;SDS011;31040;51.622;10.420;2023-05-10T00:21:24;5.97;;;3.33;;
45296;SDS011;31040;51.622;10.420;2023-05-10T00:23:52;5.78;;;3.65;;
45296;SDS011;31040;51.622;10.420;2023-05-10T00:26:19;4.70;;;3.33;;
45296;SDS011;31040;51.622;10.420;2023-05-10T00:28:46;4.45;;;3.70;;
45296;SDS011;31040;51.622;10.420;2023-05-10T00:31:14;4.68;;;3.42;;
45296;SDS011;31040;51.622;10.420;2023-05-10T00:33:41;5.20;;;3.33;;
45296;SDS011;31040;51.622;10.420;2023-05-10T00:36:08;3.88;;;3.40;;
45296;SDS011;31040;51.622;10.420;2023-05-10T00:38:36;4.78;;;3.42;;
45296;SDS011;31040;51.622;10.420;2023-05-10T00:41:03;3.92;;;3.53;;
45296;SDS011;31040;51.622;10.420;2023-05-10T00:43:31;4.22;;;3.42;;
45296;SDS011;31040;51.622;10.420;2023-05-10T00:45:58;5.45;;;3.20;;
45296;SDS011;31040;51.622;10.420;2023-05-10T00:48:25;4.03;;;3.63;;
45296;SDS011;31040;51.622;10.420;2023-05-10T00:50:53;4.47;;;3.80;;
45296;SDS011;31040;51.622;10.420;2023-05-10T00:53:20;5.88;;;3.63;;
45296;SDS011;31040;51.622;10.420;2023-05-10T00:55:48;6.03;;;3.55;;
45296;SDS011;31040;51.622;10.420;2023-05-10T00:58:15;3.65;;;3.20;;
45296;SDS011;31040;51.622;10.420;2023-05-10T01:00:43;3.53;;;3.22;;
45296;SDS011;31040;51.622;10.420;2023-05-10T01:03:10;5.32;;;3.22;;
45296;SDS011;31040;51.622;10.420;2023-05-10T01:05:38;3.90;;;3.45;;
45296;SDS011;31040;51.622;10.420;2023-05-10T01:08:05;5.63;;;3.60;;
45296;SDS011;31040;51.622;10.420;2023-05-10T01:10:35;3.55;;;3.10;;
45296;SDS011;31040;51.622;10.420;2023-05-10T01:13:02;4.68;;;3.42;;
45296;SDS011;31040;51.622;10.420;2023-05-10T01:15:32;5.63;;;3.30;;
45296;SDS011;31040;51.622;10.420;2023-05-10T01:18:00;5.20;;;3.63;;
45296;SDS011;31040;51.622;10.420;2023-05-10T01:20:27;3.53;;;2.83;;
45296;SDS011;31040;51.622;10.420;2023-05-10T01:30:41;4.43;;;3.25;;
45296;SDS011;31040;51.622;10.420;2023-05-10T01:33:27;5.15;;;3.60;;
45296;SDS011;31040;51.622;10.420;2023-05-10T01:36:16;4.53;;;3.63;;
45296;SDS011;31040;51.622;10.420;2023-05-10T01:46:46;4.00;;;3.65;;
45296;SDS011;31040;51.622;10.420;2023-05-10T01:49:50;10.23;;;4.28;;
45296;SDS011;31040;51.622;10.420;2023-05-10T01:52:10;3.58;;;3.28;;
45296;SDS011;31040;51.622;10.420;2023-05-10T01:54:41;4.15;;;3.75;;
45296;SDS011;31040;51.622;10.420;2023-05-10T01:57:10;4.55;;;3.10;;
45296;SDS011;31040;51.622;10.420;2023-05-10T01:59:40;3.50;;;3.20;;
45296;SDS011;31040;51.622;10.420;2023-05-10T02:02:08;4.72;;;3.22;;
45296;SDS011;31040;51.622;10.420;2023-05-10T02:04:39;4.55;;;3.33;;
45296;SDS011;31040;51.622;10.420;2023-05-10T02:07:07;3.42;;;3.10;;
45296;SDS011;31040;51.622;10.420;2023-05-10T02:09:35;3.65;;;3.08;;
45296;SDS011;31040;51.622;10.420;2023-05-10T02:12:03;4.82;;;3.30;;
45296;SDS011;31040;51.622;10.420;2023-05-10T02:14:34;3.40;;;3.10;;
45296;SDS011;31040;51.622;10.420;2023-05-10T02:17:03;3.40;;;3.05;;
45296;SDS011;31040;51.622;10.420;2023-05-10T02:19:31;3.45;;;3.15;;
45296;SDS011;31040;51.622;10.420;2023-05-10T02:21:59;3.80;;;3.00;;
45296;SDS011;31040;51.622;10.420;2023-05-10T02:24:27;6.18;;;3.97;;
45296;SDS011;31040;51.622;10.420;2023-05-10T02:26:55;3.50;;;3.20;;
45296;SDS011;31040;51.622;10.420;2023-05-10T02:29:23;3.42;;;3.10;;
45296;SDS011;31040;51.622;10.420;2023-05-10T02:31:52;5.05;;;3.50;;
45296;SDS011;31040;51.622;10.420;2023-05-10T02:34:21;3.80;;;3.40;;
45296;SDS011;31040;51.622;10.420;2023-05-10T02:36:48;3.90;;;3.50;;
45296;SDS011;31040;51.622;10.420;2023-05-10T02:39:18;3.78;;;2.95;;
45296;SDS011;31040;51.622;10.420;2023-05-10T02:41:46;3.25;;;3.00;;
45296;SDS011;31040;51.622;10.420;2023-05-10T02:44:15;5.25;;;3.35;;
45296;SDS011;31040;51.622;10.420;2023-05-10T02:46:44;3.75;;;3.28;;
45296;SDS011;31040;51.622;10.420;2023-05-10T02:49:12;3.47;;;3.10;;
45296;SDS011;31040;51.622;10.420;2023-05-10T02:51:41;4.90;;;3.63;;
45296;SDS011;31040;51.622;10.420;2023-05-10T02:54:18;3.85;;;3.50;;
45296;SDS011;31040;51.622;10.420;2023-05-10T02:56:47;4.35;;;3.90;;
45296;SDS011;31040;51.622;10.420;2023-05-10T02:59:17;3.75;;;3.30;;
45296;SDS011;31040;51.622;10.420;2023-05-10T03:01:45;3.53;;;3.17;;
45296;SDS011;31040;51.622;10.420;2023-05-10T03:04:12;4.25;;;3.80;;
45296;SDS011;31040;51.622;10.420;2023-05-10T03:06:39;3.95;;;3.53;;
45296;SDS011;31040;51.622;10.420;2023-05-10T03:09:07;4.22;;;3.78;;
45296;SDS011;31040;51.622;10.420;2023-05-10T03:14:25;3.85;;;3.55;;
45296;SDS011;31040;51.622;10.420;2023-05-10T03:16:58;8.80;;;3.95;;
45296;SDS011;31040;51.622;10.420;2023-05-10T03:19:29;4.40;;;3.97;;
45296;SDS011;31040;51.622;10.420;2023-05-10T03:21:59;4.70;;;3.75;;
45296;SDS011;31040;51.622;10.420;2023-05-10T03:24:27;4.22;;;3.83;;
45296;SDS011;31040;51.622;10.420;2023-05-10T03:26:55;4.80;;;4.22;;
45296;SDS011;31040;51.622;10.420;2023-05-10T03:29:23;5.72;;;3.75;;
45296;SDS011;31040;51.622;10.420;2023-05-10T03:31:52;4.63;;;3.80;;
45296;SDS011;31040;51.622;10.420;2023-05-10T03:34:23;6.18;;;3.95;;
45296;SDS011;31040;51.622;10.420;2023-05-10T03:36:51;4.95;;;4.45;;
45296;SDS011;31040;51.622;10.420;2023-05-10T03:39:18;3.55;;;3.25;;
45296;SDS011;31040;51.622;10.420;2023-05-10T03:41:47;4.05;;;3.65;;
45296;SDS011;31040;51.622;10.420;2023-05-10T03:44:14;4.25;;;3.85;;
45296;SDS011;31040;51.622;10.420;2023-05-10T03:46:42;5.45;;;3.45;;
45296;SDS011;31040;51.622;10.420;2023-05-10T03:49:10;3.88;;;3.55;;
45296;SDS011;31040;51.622;10.420;2023-05-10T03:51:37;5.50;;;4.30;;
45296;SDS011;31040;51.622;10.420;2023-05-10T03:54:04;5.63;;;3.45;;
45296;SDS011;31040;51.622;10.420;2023-05-10T03:56:32;5.07;;;3.80;;
45296;SDS011;31040;51.622;10.420;2023-05-10T03:58:59;7.80;;;4.63;;
45296;SDS011;31040;51.622;10.420;2023-05-10T04:01:27;4.45;;;3.70;;
45296;SDS011;31040;51.622;10.420;2023-05-10T04:03:54;4.18;;;3.83;;
45296;SDS011;31040;51.622;10.420;2023-05-10T04:06:21;4.43;;;3.60;;
45296;SDS011;31040;51.622;10.420;2023-05-10T04:08:49;5.32;;;3.67;;
45296;SDS011;31040;51.622;10.420;2023-05-10T04:11:16;3.97;;;3.55;;
45296;SDS011;31040;51.622;10.420;2023-05-10T04:13:43;4.10;;;3.60;;
45296;SDS011;31040;51.622;10.420;2023-05-10T04:16:11;4.32;;;3.53;;
45296;SDS011;31040;51.622;10.420;2023-05-10T04:18:39;4.07;;;3.72;;
45296;SDS011;31040;51.622;10.420;2023-05-10T04:21:12;4.68;;;3.67;;
45296;SDS011;31040;51.622;10.420;2023-05-10T04:23:40;6.90;;;3.67;;
45296;SDS011;31040;51.622;10.420;2023-05-10T04:26:07;3.67;;;3.38;;
45296;SDS011;31040;51.622;10.420;2023-05-10T04:28:35;6.70;;;3.78;;
45296;SDS011;31040;51.622;10.420;2023-05-10T04:31:06;4.57;;;3.38;;
45296;SDS011;31040;51.622;10.420;2023-05-10T04:33:33;4.38;;;3.97;;
45296;SDS011;31040;51.622;10.420;2023-05-10T04:36:02;5.20;;;3.33;;
45296;SDS011;31040;51.622;10.420;2023-05-10T04:38:29;4.90;;;3.47;;
45296;SDS011;31040;51.622;10.420;2023-05-10T04:41:03;3.70;;;3.40;;
45296;SDS011;31040;51.622;10.420;2023-05-10T04:43:31;5.13;;;3.90;;
45296;SDS011;31040;51.622;10.420;2023-05-10T04:45:59;4.45;;;4.03;;
45296;SDS011;31040;51.622;10.420;2023-05-10T04:48:26;4.20;;;3.45;;
45296;SDS011;31040;51.622;10.420;2023-05-10T04:50:53;4.13;;;3.40;;
45296;SDS011;31040;51.622;10.420;2023-05-10T04:53:21;4.13;;;3.50;;
45296;SDS011;31040;51.622;10.420;2023-05-10T04:55:49;3.42;;;3.08;;
45296;SDS011;31040;51.622;10.420;2023-05-10T04:58:16;4.43;;;3.83;;
45296;SDS011;31040;51.622;10.420;2023-05-10T05:00:43;4.22;;;3.70;;
45296;SDS011;31040;51.622;10.420;2023-05-10T05:03:11;4.13;;;3.72;;
45296;SDS011;31040;51.622;10.420;2023-05-10T05:05:38;5.35;;;4.18;;
45296;SDS011;31040;51.622;10.420;2023-05-10T05:08:06;4.10;;;3.70;;
45296;SDS011;31040;51.622;10.420;2023-05-10T05:10:33;4.57;;;4.18;;
45296;SDS011;31040;51.622;10.420;2023-05-10T05:13:01;4.10;;;3.50;;
45296;SDS011;31040;51.622;10.420;2023-05-10T05:15:28;3.90;;;3.50;;
45296;SDS011;31040;51.622;10.420;2023-05-10T05:17:56;4.38;;;3.80;;
45296;SDS011;31040;51.622;10.420;2023-05-10T05:20:24;4.38;;;3.97;;
45296;SDS011;31040;51.622;10.420;2023-05-10T05:22:51;6.55;;;4.05;;
45296;SDS011;31040;51.622;10.420;2023-05-10T05:25:19;4.13;;;3.72;;
45296;SDS011;31040;51.622;10.420;2023-05-10T05:27:46;9.88;;;4.57;;
45296;SDS011;31040;51.622;10.420;2023-05-10T05:30:14;5.15;;;3.90;;
45296;SDS011;31040;51.622;10.420;2023-05-10T05:32:42;5.25;;;4.05;;
45296;SDS011;31040;51.622;10.420;2023-05-10T05:35:09;6.25;;;4.15;;
45296;SDS011;31040;51.622;10.420;2023-05-10T05:37:37;6.40;;;4.22;;
45296;SDS011;31040;51.622;10.420;2023-05-10T05:40:04;4.15;;;3.75;;
45296;SDS011;31040;51.622;10.420;2023-05-10T05:42:32;4.65;;;4.25;;
45296;SDS011;31040;51.622;10.420;2023-05-10T05:44:59;4.75;;;4.10;;
45296;SDS011;31040;51.622;10.420;2023-05-10T05:47:27;9.23;;;4.57;;
45296;SDS011;31040;51.622;10.420;2023-05-10T05:49:54;5.78;;;4.63;;
45296;SDS011;31040;51.622;10.420;2023-05-10T05:52:22;5.25;;;4.75;;
45296;SDS011;31040;51.622;10.420;2023-05-10T05:54:49;5.43;;;4.95;;
45296;SDS011;31040;51.622;10.420;2023-05-10T05:57:17;5.70;;;4.80;;
45296;SDS011;31040;51.622;10.420;2023-05-10T05:59:44;9.25;;;4.65;;
45296;SDS011;31040;51.622;10.420;2023-05-10T06:02:12;7.57;;;5.20;;
45296;SDS011;31040;51.622;10.420;2023-05-10T06:04:39;6.13;;;5.18;;
45296;SDS011;31040;51.622;10.420;2023-05-10T06:07:10;7.53;;;5.00;;
45296;SDS011;31040;51.622;10.420;2023-05-10T06:09:37;7.43;;;5.75;;
45296;SDS011;31040;51.622;10.420;2023-05-10T06:12:04;6.60;;;5.10;;
45296;SDS011;31040;51.622;10.420;2023-05-10T06:14:32;6.00;;;5.35;;
45296;SDS011;31040;51.622;10.420;2023-05-10T06:16:59;7.43;;;5.57;;
45296;SDS011;31040;51.622;10.420;2023-05-10T06:19:27;7.97;;;5.82;;
45296;SDS011;31040;51.622;10.420;2023-05-10T06:21:54;8.27;;;5.80;;
45296;SDS011;31040;51.622;10.420;2023-05-10T06:24:22;9.25;;;5.55;;
45296;SDS011;31040;51.622;10.420;2023-05-10T06:26:49;5.95;;;5.35;;
45296;SDS011;31040;51.622;10.420;2023-05-10T06:29:17;6.07;;;5.25;;
45296;SDS011;31040;51.622;10.420;2023-05-10T06:31:44;10.30;;;6.18;;
45296;SDS011;31040;51.622;10.420;2023-05-10T06:34:12;9.38;;;6.88;;
45296;SDS011;31040;51.622;10.420;2023-05-10T06:36:40;8.85;;;6.25;;
45296;SDS011;31040;51.622;10.420;2023-05-10T06:39:08;7.93;;;6.93;;
45296;SDS011;31040;51.622;10.420;2023-05-10T06:41:37;7.40;;;6.60;;
45296;SDS011;31040;51.622;10.420;2023-05-10T06:44:05;9.85;;;6.88;;
45296;SDS011;31040;51.622;10.420;2023-05-10T06:46:32;7.75;;;6.82;;
45296;SDS011;31040;51.622;10.420;2023-05-10T06:49:02;8.35;;;6.40;;
45296;SDS011;31040;51.622;10.420;2023-05-10T06:51:29;7.55;;;6.68;;
45296;SDS011;31040;51.622;10.420;2023-05-10T06:53:57;8.40;;;6.22;;
45296;SDS011;31040;51.622;10.420;2023-05-10T06:56:24;8.38;;;6.30;;
45296;SDS011;31040;51.622;10.420;2023-05-10T06:58:52;8.98;;;7.30;;
45296;SDS011;31040;51.622;10.420;2023-05-10T07:01:19;7.68;;;6.80;;
45296;SDS011;31040;51.622;10.420;2023-05-10T07:03:47;9.10;;;7.15;;
45296;SDS011;31040;51.622;10.420;2023-05-10T07:06:14;8.38;;;6.18;;
45296;SDS011;31040;51.622;10.420;2023-05-10T07:08:57;8.93;;;6.85;;
45296;SDS011;31040;51.622;10.420;2023-05-10T07:11:25;8.55;;;7.60;;
45296;SDS011;31040;51.622;10.420;2023-05-10T07:13:53;7.22;;;6.53;;
45296;SDS011;31040;51.622;10.420;2023-05-10T07:16:20;7.63;;;6.45;;
45296;SDS011;31040;51.622;10.420;2023-05-10T07:18:48;9.73;;;6.05;;
45296;SDS011;31040;51.622;10.420;2023-05-10T07:21:16;7.68;;;6.30;;
45296;SDS011;31040;51.622;10.420;2023-05-10T07:23:44;9.40;;;7.45;;
45296;SDS011;31040;51.622;10.420;2023-05-10T07:26:11;8.70;;;6.63;;
45296;SDS011;31040;51.622;10.420;2023-05-10T07:28:38;16.25;;;6.72;;
45296;SDS011;31040;51.622;10.420;2023-05-10T07:31:06;8.25;;;6.70;;
45296;SDS011;31040;51.622;10.420;2023-05-10T07:33:33;9.77;;;6.90;;
45296;SDS011;31040;51.622;10.420;2023-05-10T07:36:01;7.43;;;6.60;;
45296;SDS011;31040;51.622;10.420;2023-05-10T07:38:28;9.82;;;7.95;;
45296;SDS011;31040;51.622;10.420;2023-05-10T07:40:55;8.18;;;7.38;;
45296;SDS011;31040;51.622;10.420;2023-05-10T07:43:23;7.55;;;6.50;;
45296;SDS011;31040;51.622;10.420;2023-05-10T07:45:50;7.57;;;6.85;;
45296;SDS011;31040;51.622;10.420;2023-05-10T07:48:21;7.25;;;6.55;;
45296;SDS011;31040;51.622;10.420;2023-05-10T07:50:48;9.55;;;8.15;;
45296;SDS011;31040;51.622;10.420;2023-05-10T07:53:16;8.93;;;7.65;;
45296;SDS011;31040;51.622;10.420;2023-05-10T07:55:49;9.20;;;7.93;;
45296;SDS011;31040;51.622;10.420;2023-05-10T07:58:17;7.90;;;7.20;;
45296;SDS011;31040;51.622;10.420;2023-05-10T08:00:44;12.52;;;7.82;;
45296;SDS011;31040;51.622;10.420;2023-05-10T08:03:11;8.27;;;7.57;;
45296;SDS011;31040;51.622;10.420;2023-05-10T08:05:39;9.95;;;8.10;;
45296;SDS011;31040;51.622;10.420;2023-05-10T08:08:07;9.25;;;7.65;;
45296;SDS011;31040;51.622;10.420;2023-05-10T08:10:34;8.70;;;7.80;;
45296;SDS011;31040;51.622;10.420;2023-05-10T08:13:02;9.55;;;7.50;;
45296;SDS011;31040;51.622;10.420;2023-05-10T08:15:29;9.27;;;7.28;;
45296;SDS011;31040;51.622;10.420;2023-05-10T08:17:57;11.65;;;7.55;;
45296;SDS011;31040;51.622;10.420;2023-05-10T08:20:24;10.10;;;8.40;;
45296;SDS011;31040;51.622;10.420;2023-05-10T08:22:51;8.23;;;7.43;;
45296;SDS011;31040;51.622;10.420;2023-05-10T08:25:19;7.93;;;6.90;;
45296;SDS011;31040;51.622;10.420;2023-05-10T08:27:47;8.63;;;7.57;;
45296;SDS011;31040;51.622;10.420;2023-05-10T08:30:14;9.35;;;7.88;;
45296;SDS011;31040;51.622;10.420;2023-05-10T08:32:42;7.57;;;6.78;;
45296;SDS011;31040;51.622;10.420;2023-05-10T08:35:09;7.78;;;7.07;;
45296;SDS011;31040;51.622;10.420;2023-05-10T08:37:36;8.98;;;7.55;;
45296;SDS011;31040;51.622;10.420;2023-05-10T08:40:04;8.63;;;6.82;;
45296;SDS011;31040;51.622;10.420;2023-05-10T08:42:32;7.50;;;6.47;;
45296;SDS011;31040;51.622;10.420;2023-05-10T08:45:02;6.78;;;6.15;;
45296;SDS011;31040;51.622;10.420;2023-05-10T08:47:29;7.13;;;6.13;;
45296;SDS011;31040;51.622;10.420;2023-05-10T08:49:57;6.93;;;6.22;;
45296;SDS011;31040;51.622;10.420;2023-05-10T08:52:26;7.57;;;6.85;;
45296;SDS011;31040;51.622;10.420;2023-05-10T08:54:55;6.75;;;6.07;;
45296;SDS011;31040;51.622;10.420;2023-05-10T08:57:22;6.72;;;5.85;;
45296;SDS011;31040;51.622;10.420;2023-05-10T08:59:50;7.00;;;5.25;;
45296;SDS011;31040;51.622;10.420;2023-05-10T09:02:18;7.68;;;6.88;;
45296;SDS011;31040;51.622;10.420;2023-05-10T09:04:45;7.07;;;6.38;;
45296;SDS011;31040;51.622;10.420;2023-05-10T09:07:13;6.63;;;5.85;;
45296;SDS011;31040;51.622;10.420;2023-05-10T09:09:40;7.00;;;5.60;;
45296;SDS011;31040;51.622;10.420;2023-05-10T09:12:08;7.18;;;5.90;;
45296;SDS011;31040;51.622;10.420;2023-05-10T09:14:37;6.03;;;5.45;;
45296;SDS011;31040;51.622;10.420;2023-05-10T09:17:05;5.22;;;4.32;;
45296;SDS011;31040;51.622;10.420;2023-05-10T09:19:32;5.65;;;4.32;;
45296;SDS011;31040;51.622;10.420;2023-05-10T09:22:00;5.20;;;4.70;;
45296;SDS011;31040;51.622;10.420;2023-05-10T09:24:29;4.70;;;4.25;;
45296;SDS011;31040;51.622;10.420;2023-05-10T09:26:57;3.75;;;3.45;;
45296;SDS011;31040;51.622;10.420;2023-05-10T09:29:25;5.35;;;3.35;;
45296;SDS011;31040;51.622;10.420;2023-05-10T09:31:52;4.25;;;3.53;;
45296;SDS011;31040;51.622;10.420;2023-05-10T09:34:32;4.65;;;4.20;;
45296;SDS011;31040;51.622;10.420;2023-05-10T09:37:02;4.10;;;2.58;;
45296;SDS011;31040;51.622;10.420;2023-05-10T09:39:34;2.45;;;2.25;;
45296;SDS011;31040;51.622;10.420;2023-05-10T09:42:02;2.83;;;2.30;;
45296;SDS011;31040;51.622;10.420;2023-05-10T09:44:30;3.35;;;1.38;;
45296;SDS011;31040;51.622;10.420;2023-05-10T09:46:59;1.90;;;1.10;;
45296;SDS011;31040;51.622;10.420;2023-05-10T09:49:26;2.20;;;1.17;;
45296;SDS011;31040;51.622;10.420;2023-05-10T09:52:03;1.40;;;1.10;;
45296;SDS011;31040;51.622;10.420;2023-05-10T09:54:31;1.35;;;1.25;;
45296;SDS011;31040;51.622;10.420;2023-05-10T09:56:59;1.77;;;1.17;;
45296;SDS011;31040;51.622;10.420;2023-05-10T09:59:27;1.90;;;1.20;;
45296;SDS011;31040;51.622;10.420;2023-05-10T10:01:58;1.48;;;1.00;;
45296;SDS011;31040;51.622;10.420;2023-05-10T10:04:27;2.38;;;1.00;;
45296;SDS011;31040;51.622;10.420;2023-05-10T10:06:58;1.17;;;0.80;;
45296;SDS011;31040;51.622;10.420;2023-05-10T10:09:27;1.60;;;1.00;;
45296;SDS011;31040;51.622;10.420;2023-05-10T10:11:54;1.85;;;0.90;;
45296;SDS011;31040;51.622;10.420;2023-05-10T10:14:23;2.45;;;0.98;;
45296;SDS011;31040;51.622;10.420;2023-05-10T10:16:50;0.95;;;0.80;;
45296;SDS011;31040;51.622;10.420;2023-05-10T10:19:33;0.80;;;0.80;;
45296;SDS011;31040;51.622;10.420;2023-05-10T10:22:04;0.93;;;0.88;;
45296;SDS011;31040;51.622;10.420;2023-05-10T10:24:32;0.90;;;0.80;;
45296;SDS011;31040;51.622;10.420;2023-05-10T10:27:06;1.55;;;0.70;;
45296;SDS011;31040;51.622;10.420;2023-05-10T10:34:39;1.40;;;0.70;;
45296;SDS011;31040;51.622;10.420;2023-05-10T10:37:06;1.10;;;1.00;;
45296;SDS011;31040;51.622;10.420;2023-05-10T10:39:34;1.00;;;0.80;;
45296;SDS011;31040;51.622;10.420;2023-05-10T10:42:03;1.02;;;0.90;;
45296;SDS011;31040;51.622;10.420;2023-05-10T10:52:20;1.75;;;1.20;;
45296;SDS011;31040;51.622;10.420;2023-05-10T10:55:02;1.15;;;0.93;;
45296;SDS011;31040;51.622;10.420;2023-05-10T10:57:52;1.08;;;1.08;;
45296;SDS011;31040;51.622;10.420;2023-05-10T11:00:30;2.47;;;0.90;;
45296;SDS011;31040;51.622;10.420;2023-05-10T11:07:56;1.20;;;1.10;;
45296;SDS011;31040;51.622;10.420;2023-05-10T11:10:25;2.85;;;1.20;;
45296;SDS011;31040;51.622;10.420;2023-05-10T11:13:05;0.82;;;0.82;;
45296;SDS011;31040;51.622;10.420;2023-05-10T11:15:33;2.25;;;0.90;;
45296;SDS011;31040;51.622;10.420;2023-05-10T11:18:23;1.27;;;0.90;;
45296;SDS011;31040;51.622;10.420;2023-05-10T11:20:52;1.67;;;0.98;;
45296;SDS011;31040;51.622;10.420;2023-05-10T11:23:19;1.58;;;1.25;;
45296;SDS011;31040;51.622;10.420;2023-05-10T11:25:47;1.95;;;1.25;;
45296;SDS011;31040;51.622;10.420;2023-05-10T11:28:17;1.73;;;1.30;;
45296;SDS011;31040;51.622;10.420;2023-05-10T11:30:46;1.70;;;1.05;;
45296;SDS011;31040;51.622;10.420;2023-05-10T11:33:16;1.02;;;1.00;;
45296;SDS011;31040;51.622;10.420;2023-05-10T11:35:45;1.17;;;1.08;;
45296;SDS011;31040;51.622;10.420;2023-05-10T11:38:13;0.80;;;0.80;;
45296;SDS011;31040;51.622;10.420;2023-05-10T11:40:41;1.23;;;0.90;;
45296;SDS011;31040;51.622;10.420;2023-05-10T11:43:09;0.77;;;0.77;;
45296;SDS011;31040;51.622;10.420;2023-05-10T11:45:37;1.42;;;0.90;;
45296;SDS011;31040;51.622;10.420;2023-05-10T11:48:05;1.10;;;0.95;;
45296;SDS011;31040;51.622;10.420;2023-05-10T11:50:32;1.45;;;0.93;;
45296;SDS011;31040;51.622;10.420;2023-05-10T11:53:00;1.55;;;0.73;;
45296;SDS011;31040;51.622;10.420;2023-05-10T11:55:27;0.95;;;0.90;;
45296;SDS011;31040;51.622;10.420;2023-05-10T11:58:00;1.25;;;0.90;;
45296;SDS011;31040;51.622;10.420;2023-05-10T12:00:27;1.38;;;0.85;;
45296;SDS011;31040;51.622;10.420;2023-05-10T12:02:55;0.90;;;0.90;;
45296;SDS011;31040;51.622;10.420;2023-05-10T12:05:23;0.98;;;0.93;;
45296;SDS011;31040;51.622;10.420;2023-05-10T12:07:50;1.40;;;0.88;;
45296;SDS011;31040;51.622;10.420;2023-05-10T12:10:18;0.93;;;0.80;;
45296;SDS011;31040;51.622;10.420;2023-05-10T12:12:51;2.58;;;1.02;;
45296;SDS011;31040;51.622;10.420;2023-05-10T12:15:22;0.93;;;0.63;;
45296;SDS011;31040;51.622;10.420;2023-05-10T12:17:50;0.63;;;0.50;;
45296;SDS011;31040;51.622;10.420;2023-05-10T12:20:21;0.68;;;0.50;;
45296;SDS011;31040;51.622;10.420;2023-05-10T12:22:53;0.50;;;0.50;;
45296;SDS011;31040;51.622;10.420;2023-05-10T12:25:23;0.52;;;0.50;;
45296;SDS011;31040;51.622;10.420;2023-05-10T12:27:51;0.30;;;0.30;;
45296;SDS011;31040;51.622;10.420;2023-05-10T12:30:19;0.40;;;0.40;;
45296;SDS011;31040;51.622;10.420;2023-05-10T12:32:47;0.70;;;0.30;;
45296;SDS011;31040;51.622;10.420;2023-05-10T12:35:15;0.40;;;0.40;;
45296;SDS011;31040;51.622;10.420;2023-05-10T12:37:43;0.40;;;0.40;;
45296;SDS011;31040;51.622;10.420;2023-05-10T12:40:10;0.32;;;0.32;;
45296;SDS011;31040;51.622;10.420;2023-05-10T12:42:38;0.40;;;0.40;;
45296;SDS011;31040;51.622;10.420;2023-05-10T12:45:07;0.57;;;0.57;;
45296;SDS011;31040;51.622;10.420;2023-05-10T12:47:34;0.40;;;0.30;;
45296;SDS011;31040;51.622;10.420;2023-05-10T12:50:02;1.50;;;0.45;;
45296;SDS011;31040;51.622;10.420;2023-05-10T12:52:30;1.00;;;0.50;;
45296;SDS011;31040;51.622;10.420;2023-05-10T12:55:01;0.47;;;0.47;;
45296;SDS011;31040;51.622;10.420;2023-05-10T12:57:29;0.28;;;0.28;;
45296;SDS011;31040;51.622;10.420;2023-05-10T12:59:57;0.38;;;0.38;;
45296;SDS011;31040;51.622;10.420;2023-05-10T13:02:24;0.80;;;0.57;;
45296;SDS011;31040;51.622;10.420;2023-05-10T13:04:52;1.20;;;0.40;;
45296;SDS011;31040;51.622;10.420;2023-05-10T13:07:19;0.30;;;0.30;;
45296;SDS011;31040;51.622;10.420;2023-05-10T13:09:47;0.40;;;0.40;;
45296;SDS011;31040;51.622;10.420;2023-05-10T13:12:14;0.50;;;0.50;;
45296;SDS011;31040;51.622;10.420;2023-05-10T13:14:42;1.25;;;0.50;;
45296;SDS011;31040;51.622;10.420;2023-05-10T13:17:09;0.45;;;0.40;;
45296;SDS011;31040;51.622;10.420;2023-05-10T13:19:37;0.60;;;0.60;;
45296;SDS011;31040;51.622;10.420;2023-05-10T13:22:04;2.15;;;0.80;;
45296;SDS011;31040;51.622;10.420;2023-05-10T13:24:32;0.50;;;0.50;;
45296;SDS011;31040;51.622;10.420;2023-05-10T13:26:59;3.30;;;0.85;;
45296;SDS011;31040;51.622;10.420;2023-05-10T13:29:27;1.08;;;0.60;;
45296;SDS011;31040;51.622;10.420;2023-05-10T13:31:55;0.60;;;0.60;;
45296;SDS011;31040;51.622;10.420;2023-05-10T13:34:23;0.88;;;0.50;;
45296;SDS011;31040;51.622;10.420;2023-05-10T13:36:50;1.05;;;0.47;;
45296;SDS011;31040;51.622;10.420;2023-05-10T13:39:19;1.48;;;0.68;;
45296;SDS011;31040;51.622;10.420;2023-05-10T13:41:47;0.40;;;0.40;;
45296;SDS011;31040;51.622;10.420;2023-05-10T13:44:14;0.60;;;0.60;;
45296;SDS011;31040;51.622;10.420;2023-05-10T13:46:42;0.65;;;0.65;;
45296;SDS011;31040;51.622;10.420;2023-05-10T13:49:10;1.35;;;0.65;;
45296;SDS011;31040;51.622;10.420;2023-05-10T13:51:37;0.50;;;0.50;;
45296;SDS011;31040;51.622;10.420;2023-05-10T13:54:04;0.77;;;0.77;;
45296;SDS011;31040;51.622;10.420;2023-05-10T13:56:32;0.95;;;0.50;;
45296;SDS011;31040;51.622;10.420;2023-05-10T13:58:59;0.70;;;0.63;;
45296;SDS011;31040;51.622;10.420;2023-05-10T14:01:27;1.17;;;0.82;;
45296;SDS011;31040;51.622;10.420;2023-05-10T14:03:54;1.83;;;0.57;;
45296;SDS011;31040;51.622;10.420;2023-05-10T14:06:22;0.70;;;0.70;;
45296;SDS011;31040;51.622;10.420;2023-05-10T14:08:49;1.40;;;0.68;;
45296;SDS011;31040;51.622;10.420;2023-05-10T14:11:16;0.85;;;0.70;;
45296;SDS011;31040;51.622;10.420;2023-05-10T14:13:44;1.00;;;0.60;;
45296;SDS011;31040;51.622;10.420;2023-05-10T14:16:11;0.93;;;0.60;;
45296;SDS011;31040;51.622;10.420;2023-05-10T14:18:41;2.90;;;0.90;;
45296;SDS011;31040;51.622;10.420;2023-05-10T14:21:08;1.30;;;0.70;;
45296;SDS011;31040;51.622;10.420;2023-05-10T14:23:35;0.50;;;0.43;;
45296;SDS011;31040;51.622;10.420;2023-05-10T14:26:03;0.50;;;0.50;;
45296;SDS011;31040;51.622;10.420;2023-05-10T14:28:30;0.90;;;0.40;;
45296;SDS011;31040;51.622;10.420;2023-05-10T14:30:58;1.23;;;0.70;;
45296;SDS011;31040;51.622;10.420;2023-05-10T14:33:25;0.73;;;0.68;;
45296;SDS011;31040;51.622;10.420;2023-05-10T14:35:53;2.20;;;0.60;;
45296;SDS011;31040;51.622;10.420;2023-05-10T14:38:23;1.58;;;0.88;;
45296;SDS011;31040;51.622;10.420;2023-05-10T14:40:50;0.80;;;0.70;;
45296;SDS011;31040;51.622;10.420;2023-05-10T14:43:17;0.65;;;0.60;;
45296;SDS011;31040;51.622;10.420;2023-05-10T14:45:45;1.50;;;0.80;;
45296;SDS011;31040;51.622;10.420;2023-05-10T14:48:12;0.73;;;0.55;;
45296;SDS011;31040;51.622;10.420;2023-05-10T14:50:43;1.50;;;0.70;;
45296;SDS011;31040;51.622;10.420;2023-05-10T14:53:11;1.23;;;0.82;;
45296;SDS011;31040;51.622;10.420;2023-05-10T14:55:38;0.98;;;0.70;;
45296;SDS011;31040;51.622;10.420;2023-05-10T14:58:05;1.27;;;1.00;;
45296;SDS011;31040;51.622;10.420;2023-05-10T15:00:33;0.55;;;0.55;;
45296;SDS011;31040;51.622;10.420;2023-05-10T15:03:00;1.23;;;0.80;;
45296;SDS011;31040;51.622;10.420;2023-05-10T15:05:29;0.70;;;0.70;;
45296;SDS011;31040;51.622;10.420;2023-05-10T15:07:56;0.98;;;0.55;;
45296;SDS011;31040;51.622;10.420;2023-05-10T15:10:24;3.83;;;0.73;;
45296;SDS011;31040;51.622;10.420;2023-05-10T15:12:51;2.33;;;0.98;;
45296;SDS011;31040;51.622;10.420;2023-05-10T15:15:18;1.15;;;0.68;;
45296;SDS011;31040;51.622;10.420;2023-05-10T15:17:47;0.65;;;0.63;;